Weather observations for the past three days for
Socorro Municipal Airport
Metric (Imperial)
Date Time (mdt) Wind (kph) Vis. (km) Weather Sky Cond. Temperature (ºC) Relative Humidity Wind Chill (°C) Heat Index (°C) Pressure Precipitation (cm)
Air Dwpt 6 hour altimeter (cm) sea level (mb) 1 hr 3 hr 6 hr
Max. Min.
09 04:15 S 7 16.09 Fair CLR 11 -6.6 29% 76.12 0.0
09 03:55 Calm 16.09 Fair CLR 14.4 -9.5 18% 76.1 0.0
09 03:35 W 6 16.09 Fair CLR 13.6 -9.5 19% 76.1 0.0
09 03:15 W 6 16.09 Fair CLR 13.9 -9.8 18% 76.1 0.0
09 02:55 NW 6 16.09 Fair CLR 15.5 -8.5 18% 76.1 0.0
09 02:35 N 6 16.09 Fair CLR 14.9 -8.8 19% 76.1 0.0
09 02:15 NW 6 16.09 Fair CLR 14.6 -9.1 19% 76.1 0.0
09 01:55 N 9 16.09 Fair CLR 15.5 -8.7 18% 76.12 0.0
09 01:35 SW 11 16.09 Fair CLR 15.9 -9.7 16% 76.1 0.0
09 01:15 W 11 16.09 Fair CLR 16.8 -10 15% 76.12 0.0
09 00:55 SW 9 16.09 Fair CLR 15.1 -9.6 17% 76.15 0.0
09 00:35 Calm 16.09 Fair CLR 16.5 -8.8 17% 76.15 0.0
09 00:15 Calm 16.09 Fair CLR 17.6 -8.9 16% 76.15 0.0
08 23:55 Calm 16.09 Fair CLR 18.7 -8.7 30.4 17.8 15% 76.15 0.0
08 23:35 Calm 16.09 Fair CLR 18.1 -9.3 15% 76.15 0.0
08 23:15 SW 6 16.09 Fair CLR 19.9 -8.9 13% 76.15 0.0
08 22:55 SE 6 16.09 Fair CLR 19.7 -7.8 15% 76.15 0.0
08 22:35 Calm 16.09 Fair CLR 21.3 -8.3 13% 76.12 0.0
08 22:15 SW 15 16.09 Fair CLR 22.3 -8.8 12% 76.12 0.0
08 21:55 SW 15 16.09 Fair CLR 22 -9 12% 76.1 0.0
08 21:35 W 13 16.09 Fair CLR 22.1 -9 12% 76.1 0.0
08 21:15 W 13 16.09 Fair CLR 22.4 -8.8 12% 76.05 0.0
08 20:55 W 9 16.09 Fair CLR 22.1 -9 12% 76.05 0.0
08 20:35 SW 6 16.09 Fair CLR 22.5 -9.1 11% 76.02 0.0
08 20:15 S 6 16.09 Fair CLR 24 -8.5 11% 24 76 0.0
08 19:55 Calm 16.09 Fair CLR 26.7 -7.5 10% 26 75.97 0.0
08 19:35 NE 7 16.09 Fair CLR 27.7 -7.6 9% 26 75.97 0.0
08 19:15 NE 7 16.09 Fair CLR 28.5 -7.9 9% 27 75.95 0.0
08 18:55 N 9 16.09 Fair CLR 29.2 -8 8% 28 75.95 0.0
08 18:35 NE 13 16.09 Fair CLR 29.8 -7.8 8% 28 75.95 0.0
08 18:15 N 17 16.09 Fair CLR 29.8 -7.8 8% 28 75.95 0.0
08 17:55 N 15 16.09 Fair CLR 30.2 -7.9 30.6 25.9 8% 28 75.95 0.0
08 17:35 N 13 G 19 16.09 Fair CLR 30.3 -8 8% 28 75.95 0.0
08 17:15 N 7 16.09 Fair CLR 30.4 -7.7 8% 29 75.95 0.0
08 16:55 N 19 G 31 16.09 Fair CLR 30.2 -7.9 8% 28 75.95 0.0
08 16:35 N 17 16.09 Fair CLR 30 -7.7 8% 28 75.97 0.0
08 16:15 N 17 16.09 Fair CLR 29.6 -7.4 8% 28 76 0.0
08 15:55 NE 11 16.09 Fair CLR 29.6 -7.4 8% 28 76 0.0
08 15:35 NE 7 16.09 Fair CLR 29.7 -7.2 8% 28 76.02 0.0
08 15:15 E 6 16.09 Fair CLR 28.9 -7 9% 27 76.05 0.0
08 14:55 Calm 16.09 Fair CLR 28.4 -7.1 9% 27 76.1 0.0
08 14:35 Calm 16.09 Fair CLR 28.5 -7 9% 27 76.12 0.0
08 14:15 NE 22 G 30 16.09 Fair CLR 28.8 -6.9 9% 27 76.12 0.0
08 13:55 N 22 G 31 16.09 Fair CLR 28 -7 9% 27 76.15 0.0
08 13:35 NE 24 G 33 16.09 Fair CLR 28.2 -7 9% 27 76.15 0.0
08 13:15 NE 24 G 33 16.09 Fair CLR 28.3 -6.9 9% 27 76.17 0.0
08 12:55 N 19 G 26 16.09 Fair CLR 27.3 -6.7 10% 26 76.2 0.0
08 12:35 NE 19 G 30 16.09 Fair CLR 27 -6.5 10% 26 76.23 0.0
08 12:15 N 13 G 26 16.09 Fair CLR 26.8 -6.6 11% 26 76.25 0.0
08 11:55 N 20 G 28 16.09 Fair CLR 26.3 -6.7 26.3 9.6 11% 25 76.28 0.0
08 11:35 N 15 G 30 16.09 Fair CLR 25.2 -7.1 11% 25 76.3 0.0
08 11:15 NW 13 16.09 Fair CLR 24.6 -8.4 10% 24 76.3 0.0
08 10:55 N 15 16.09 Fair CLR 24.1 -9.1 10% 24 76.33 0.0
08 10:35 N 15 16.09 Fair CLR 23.2 -9.5 10% 76.33 0.0
08 10:15 N 11 16.09 Fair CLR 22.1 -9.6 11% 76.33 0.0
08 09:55 N 11 16.09 Fair CLR 20.5 -10.2 12% 76.35 0.0
08 09:35 N 17 16.09 Fair CLR 19.7 -11.1 11% 76.35 0.0
08 09:15 N 15 16.09 Fair CLR 18.8 -11.7 12% 76.35 0.0
08 08:55 N 13 16.09 Fair CLR 18.2 -11.8 12% 76.35 0.0
08 08:35 N 11 16.09 Fair CLR 17.2 -11.8 13% 76.35 0.0
08 08:15 NW 13 16.09 Fair CLR 16.5 -12 13% 76.35 0.0
08 07:55 N 9 16.09 Fair CLR 15.4 -12.3 14% 76.35 0.0
08 07:35 N 11 16.09 Fair CLR 14.7 -12.6 14% 76.33 0.0
08 07:15 NW 11 16.09 Fair CLR 12.8 -13.1 15% 76.33 0.0
08 06:55 NW 13 16.09 Fair CLR 11.3 -13 17% 76.3 0.0
08 06:35 NW 11 16.09 Fair CLR 10.2 -13.1 18% 76.28 0.0
08 06:15 NW 13 16.09 Fair CLR 10.6 -12.5 19% 76.28 0.0
08 05:55 NW 9 16.09 Fair CLR 9.5 -12 14 9.5 21% 8 76.28 0.0
08 05:35 NW 13 16.09 Fair CLR 10.6 -13 18% 76.25 0.0
08 05:15 N 9 16.09 Fair CLR 10.5 -11.6 20% 76.25 0.0
08 04:55 N 7 16.09 Fair CLR 9.8 -10.5 23% 9 76.25 0.0
08 04:35 N 15 16.09 Fair CLR 11.2 -10.5 21% 76.25 0.0
08 04:15 N 11 16.09 Fair CLR 11.5 -11.1 20% 76.23 0.0
08 03:55 NW 11 16.09 Fair CLR 10.1 -10.8 22% 76.2 0.0
08 03:35 NW 11 16.09 Fair CLR 10.1 -11.3 21% 76.2 0.0
08 03:15 N 6 16.09 Fair CLR 11.1 -11.5 19% 76.2 0.0
08 02:55 NW 6 16.09 Fair CLR 10.7 -10 22% 76.2 0.0
08 02:35 W 7 16.09 Fair CLR 11.8 -9.7 21% 76.2 0.0
08 02:15 Calm 16.09 Fair CLR 10.2 -10.6 22% 76.2 0.0
08 01:55 Calm 16.09 Fair CLR 11.5 -10.4 21% 76.23 0.0
08 01:35 Calm 16.09 Fair CLR 12.9 -9.8 20% 76.23 0.0
08 01:15 W 9 16.09 Fair CLR 12.9 -10 19% 76.25 0.0
08 00:55 W 7 16.09 Fair CLR 11.7 -11.2 19% 76.25 0.0
08 00:35 Calm 16.09 Fair CLR 12.3 -10.8 19% 76.25 0.0
08 00:15 NW 6 16.09 Fair CLR 13.4 -10.7 18% 76.25 0.0
07 23:55 SW 9 16.09 Fair CLR 14 -10.4 25.3 14 17% 76.25 0.0
07 23:35 W 9 16.09 Fair CLR 14.4 -10.8 17% 76.25 0.0
07 23:15 W 9 16.09 Fair CLR 15 -11.7 15% 76.25 0.0
07 22:55 S 13 16.09 Fair CLR 15 -11.7 15% 76.25 0.0
07 22:35 N 9 16.09 Fair CLR 17.1 -11 14% 76.25 0.0
07 22:15 W 11 16.09 Fair CLR 17.5 -10.6 14% 76.23 0.0
07 21:55 W 13 16.09 Fair CLR 17.3 -10.8 14% 76.2 0.0
07 21:35 W 13 16.09 Fair CLR 17.3 -11.5 13% 76.17 0.0
07 21:15 W 9 16.09 Fair CLR 16.8 -11.8 13% 76.17 0.0
07 20:55 Calm 16.09 Fair CLR 16.7 -12.7 12% 76.15 0.0
07 20:35 Calm 16.09 Fair CLR 18.9 -12.3 11% 76.15 0.0
07 20:15 Calm 16.09 Fair CLR 21.8 -10.8 10% 76.12 0.0
07 19:55 Calm 16.09 Fair CLR 22.1 -11.4 10% 76.12 0.0
07 19:35 Calm 16.09 Fair CLR 24 -11.2 9% 24 76.12 0.0
07 19:15 SE 6 16.09 Fair CLR 24.3 -12.4 8% 24 76.12 0.0
07 18:55 Calm 16.09 Fair CLR 24.6 -13.6 7% 24 76.12 0.0
07 18:35 E 6 16.09 Fair CLR 24.5 -13.2 7% 24 76.12 0.0
07 18:15 NE 9 16.09 Fair CLR 25.3 -13.1 7% 24 76.12 0.0
07 17:55 NE 7 16.09 Fair CLR 25.2 -13.2 25.7 18.8 7% 24 76.12 0.0
07 17:35 E 9 16.09 Fair CLR 25.1 -12.9 7% 24 76.12 0.0
07 17:15 Calm 16.09 Fair CLR 25.3 -12.5 7% 24 76.12 0.0
07 16:55 N 6 16.09 Fair CLR 25 -11.5 8% 24 76.15 0.0
07 16:35 N 6 16.09 Fair CLR 25.1 -11.2 8% 24 76.15 0.0
07 16:15 E 11 16.09 Fair CLR 24.9 -10.2 9% 24 76.17 0.0
07 15:55 NE 11 16.09 Fair CLR 25.2 -10 9% 25 76.2 0.0
07 15:35 N 9 16.09 Fair CLR 24.6 -9.7 9% 24 76.23 0.0
07 15:15 SE 11 16.09 Fair CLR 24.1 -8.9 10% 24 76.25 0.0
07 14:15 NE 11 16.09 Fair CLR 22.8 -7.6 12% 76.33 0.0
07 13:55 Calm 16.09 Fair CLR 22.8 -7.2 13% 76.35 0.0
07 13:35 E 9 16.09 Fair CLR 21.5 -7.1 14% 76.4 0.0
07 13:15 NE 15 16.09 Fair CLR 21.9 -6.7 14% 76.43 0.0
07 12:55 N 9 16.09 Fair CLR 21.3 -6.8 15% 76.45 0.0
07 12:35 N 19 G 30 16.09 Fair CLR 21.2 -6.5 15% 76.48 0.0
07 12:15 N 13 G 28 16.09 Fair CLR 20.3 -6.2 16% 76.5 0.0
07 11:55 NE 9 16.09 Fair CLR 18.7 -4.9 19.2 7.7 20% 76.53 0.0
07 11:15 NE 22 16.09 Fair CLR 17.7 -4.5 22% 76.58 0.0
07 10:55 N 15 16.09 Fair CLR 17 -5 22% 76.61 0.0
07 10:35 NE 22 G 30 16.09 Fair CLR 16.1 -5.4 23% 76.61 0.0
07 10:15 N 19 G 30 16.09 Fair CLR 15.8 -5.4 23% 76.63 0.0
07 09:55 N 24 G 31 16.09 Fair CLR 14.1 -4.9 27% 76.66 0.0
07 09:35 N 19 16.09 Fair CLR 13.6 -4.9 28% 76.68 0.0
07 09:15 N 20 16.09 Fair CLR 12.8 -5.3 28% 76.66 0.0
07 08:55 N 28 16.09 Fair CLR 12.1 -6.7 26% 76.68 0.0
07 08:35 N 19 16.09 Fair CLR 11.2 -5.6 31% 76.68 0.0
07 08:15 N 26 16.09 Fair CLR 11.2 -6.5 29% 76.68 0.0
07 07:55 N 24 G 31 16.09 Fair CLR 10.9 -6.8 28% 76.68 0.0
07 07:35 N 17 16.09 Fair CLR 10.2 -6.8 30% 76.66 0.0
07 07:15 N 17 16.09 Fair CLR 8.9 -6.3 34% 7 76.63 0.0
07 06:55 N 15 16.09 Fair CLR 7.9 -6.1 37% 6 76.63 0.0
07 06:35 N 15 16.09 Fair CLR 8 -5.8 37% 6 76.61 0.0
07 06:15 N 11 16.09 Fair CLR 8 -5.5 38% 6 76.61 0.0
07 05:55 N 15 16.09 Fair CLR 8.8 -3.4 15.2 8.7 42% 7 76.61 0.0
07 05:35 N 13 16.09 Fair CLR 8.9 -3.5 42% 7 76.61 0.0
07 05:15 NW 15 16.09 Fair CLR 9.6 -4.5 37% 8 76.58 0.0
07 04:55 N 19 16.09 Fair CLR 9.5 -4.9 36% 7 76.58 0.0
07 04:35 N 15 16.09 Fair CLR 9.4 -3.9 39% 7 76.61 0.0
07 04:15 NW 11 16.09 Fair CLR 9.3 -4.2 39% 8 76.63 0.0
07 03:55 NW 9 16.09 Fair CLR 9.1 -2.7 44% 8 76.61 0.0
07 03:35 NW 9 16.09 Fair CLR 9.7 -1.8 45% 9 76.61 0.0
07 03:15 NW 11 16.09 Fair CLR 9.1 -1.6 47% 8 76.58 0.0
07 02:55 NW 9 16.09 Fair CLR 9.6 -1.5 46% 9 76.58 0.0
07 02:35 NW 9 16.09 Fair CLR 9.3 -1.5 47% 8 76.58 0.0
07 02:15 N 9 16.09 Fair CLR 10.2 -1.3 45% 76.58 0.0
07 01:55 N 9 16.09 Fair CLR 10.5 -1.2 44% 76.58 0.0
07 01:35 N 6 16.09 Fair CLR 11.2 -1.1 43% 76.56 0.0
07 01:15 NE 7 16.09 Fair CLR 11.6 -0.8 43% 76.56 0.0
07 00:55 E 9 16.09 Fair CLR 13 -1.2 38% 76.53 0.0
07 00:35 N 9 16.09 Fair CLR 14.8 -1.5 33% 76.53 0.0
07 00:15 N 13 16.09 Fair CLR 15 -1.5 32% 76.53 0.0
06 23:55 N 13 16.09 Fair CLR 15 -1.5 24.6 15 32% 76.48 0.0
06 23:35 N 15 16.09 Fair CLR 15.2 -1.3 32% 76.48 0.0
06 23:15 N 19 16.09 Fair CLR 15.2 -1.3 32% 76.48 0.0
06 22:55 N 19 16.09 Fair CLR 15.5 -1.2 32% 76.48 0.0
06 22:35 NW 17 16.09 Fair CLR 15.6 -1 32% 76.45 0.0
06 22:15 N 17 16.09 Fair CLR 15.8 -0.8 32% 76.43 0.0
06 21:55 N 13 16.09 Fair CLR 16 -0.8 32% 76.4 0.0
06 21:35 N 15 16.09 Fair CLR 16.6 -1 30% 76.38 0.0
06 21:15 N 15 16.09 Fair CLR 17.4 -1.5 28% 76.35 0.0
06 20:55 N 15 16.09 Fair CLR 18 -1.6 27% 76.3 0.0
06 20:35 N 19 G 33 16.09 Fair CLR 19 -2.4 23% 76.28 0.0
06 20:15 NW 13 16.09 Fair CLR 20.6 -8.3 14% 76.23 0.0
06 19:55 N 17 16.09 Fair CLR 21 -7.8 14% 76.17 0.0
06 19:35 N 17 G 26 16.09 Fair CLR 21.7 -7.7 13% 76.15 0.0
06 19:15 NW 20 G 26 16.09 Fair CLR 22.5 -8.1 12% 76.15 0.0
06 18:55 NW 24 G 39 16.09 Fair CLR 23.1 -7.7 12% 76.12 0.0
06 18:35 W 20 G 35 16.09 Partly Cloudy SCT120 23.7 -7.6 12% 76.07 0.0
06 18:15 NW 22 G 39 16.09 Fair CLR 24.1 -7.2 12% 24 76.05 0.0
06 17:55 NW 24 G 39 16.09 Fair CLR 24 -8.7 24.8 18.2 11% 24 76.05 0.0
06 17:35 W 9 16.09 Partly Cloudy SCT120 24.7 -8.8 10% 24 76.05 0.0
06 17:15 W 6 16.09 Partly Cloudy SCT120 23.2 -7.6 12% 76.02 0.0
06 16:55 SE 9 16.09 Mostly Cloudy BKN120 23.5 -7.5 12% 76.02 0.0
06 16:35 SE 11 16.09 Mostly Cloudy BKN120 22 -7.5 13% 76.02 0.0
06 16:15 Calm 16.09 Partly Cloudy SCT120 21.8 -7.7 13% 76.02 0.0
06 15:55 S 9 16.09 Mostly Cloudy BKN120 22 -7.4 13% 76.05 0.0
06 15:35 SE 17 16.09 Partly Cloudy SCT120 21.6 -7.2 14% 76.05 0.0
06 15:15 S 26 G 37 16.09 Partly Cloudy SCT120 22.7 -6.7 13% 76.07 0.0
06 14:55 SE 20 G 35 16.09 Partly Cloudy SCT120 22.2 -6.7 14% 76.1 0.0
06 14:35 S 17 G 28 16.09 Partly Cloudy SCT110 23.3 -6.4 13% 76.1 0.0
06 14:15 Calm 16.09 Partly Cloudy SCT120 21.8 -6.5 14% 76.12 0.0
06 13:55 Calm 16.09 Mostly Cloudy BKN110 21.1 -6.5 15% 76.12 0.0
06 13:35 S 9 16.09 Partly Cloudy SCT120 21.2 -6.1 15% 76.15 0.0
06 13:15 SW 13 16.09 Partly Cloudy SCT110 21.4 -5.9 15% 76.15 0.0
06 12:55 S 7 16.09 Partly Cloudy SCT095 21.3 -5.6 16% 76.17 0.0
06 12:35 S 13 16.09 Partly Cloudy SCT095 20.7 -5 17% 76.2 0.0
06 12:15 Calm 16.09 Overcast OVC085 19.2 -4.8 19% 76.23 0.0
06 11:55 NW 7 16.09 Overcast OVC085 18 -4.7 19.1 6.4 21% 76.23 0.0
06 11:35 NW 11 16.09 Mostly Cloudy BKN085 19.1 -4.8 19% 76.23 0.0
06 11:15 N 15 16.09 Partly Cloudy SCT075 18.5 -4.5 21% 76.25 0.0
06 10:55 NW 15 G 33 16.09 Mostly Cloudy BKN075 17.8 -4.6 21% 76.25 0.0
06 10:35 NW 15 16.09 Overcast OVC075 17.5 -4.6 22% 76.28 0.0
06 10:15 NE 6 16.09 Mostly Cloudy BKN075 16.9 -4.4 23% 76.28 0.0
06 09:55 NW 9 16.09 Partly Cloudy SCT075 16.1 -4.4 24% 76.3 0.0
06 09:35 N 20 G 28 16.09 Partly Cloudy SCT075 15.7 -4.3 25% 76.3 0.0
06 09:15 N 11 16.09 Fair CLR 14.6 -4 28% 76.3 0.0
06 08:55 NW 13 16.09 Fair CLR 14.8 -3.8 28% 76.3 0.0
06 08:35 W 15 16.09 Fair CLR 14.6 -3.6 28% 76.3 0.0
06 08:15 NW 19 G 28 16.09 Fair CLR 14.1 -2.4 32% 76.3 0.0
06 07:55 N 15 16.09 Fair CLR 13.1 -1.7 36% 76.3 0.0
06 07:35 N 17 16.09 Fair CLR 11.8 -1 41% 76.28 0.0
06 07:15 NW 6 16.09 Fair CLR 11.1 -1 43% 76.28 0.0
06 06:55 Calm 16.09 Fair CLR 9.9 -0.9 47% 76.25 0.0
06 06:35 Calm 16.09 Fair CLR 7.8 -1.1 54% 76.23 0.0
06 06:15 Calm 16.09 Fair CLR 7.8 -1.9 51% 76.2 0.0
06 05:55 S 7 16.09 Fair CLR 9 -1.6 15.7 8.5 48% 8 76.2 0.0
06 05:35 Calm 16.09 Fair CLR 9.2 -1 49% 76.2 0.0
06 05:15 SW 6 16.09 Fair CLR 8.6 -0.6 53% 76.17 0.0
06 04:55 S 7 16.09 Fair CLR 9.1 -0.6 51% 8 76.17 0.0
Date Time (mdt) Wind (kph) Vis. (km) Weather Sky Cond. Air Dwpt Max. Min. Relative Humidity Wind Chill (°C) Heat Index (°C) altimeter (cm) sea level (mb) 1 hr 3 hr 6 hr
6 hour
Temperature (ºC) Pressure Precipitation (cm)